createdAt,value
2023-04-25T00:01:55.617Z,6.60
2023-04-25T00:04:22.781Z,4.50
2023-04-25T00:06:49.714Z,7.00
2023-04-25T00:09:16.256Z,5.70
2023-04-25T00:11:42.761Z,6.93
2023-04-25T00:14:09.203Z,8.77
2023-04-25T00:16:36.534Z,7.13
2023-04-25T00:19:03.962Z,5.63
2023-04-25T00:21:32.532Z,7.87
2023-04-25T00:23:59.134Z,7.13
2023-04-25T00:26:25.960Z,12.57
2023-04-25T00:28:52.468Z,7.67
2023-04-25T00:31:19.066Z,6.40
2023-04-25T00:33:45.611Z,8.77
2023-04-25T00:36:12.284Z,6.83
2023-04-25T00:38:39.310Z,5.50
2023-04-25T00:41:07.250Z,9.67
2023-04-25T00:43:34.783Z,11.27
2023-04-25T00:46:02.245Z,9.23
2023-04-25T00:48:28.760Z,9.57
2023-04-25T00:50:57.899Z,9.10
2023-04-25T00:53:26.372Z,9.23
2023-04-25T00:55:53.788Z,7.60
2023-04-25T00:58:22.162Z,7.53
2023-04-25T01:00:50.149Z,9.70
2023-04-25T01:03:18.372Z,10.27
2023-04-25T01:05:45.032Z,6.67
2023-04-25T01:08:11.664Z,10.13
2023-04-25T01:10:38.101Z,6.53
2023-04-25T01:13:04.628Z,11.77
2023-04-25T01:15:31.289Z,9.47
2023-04-25T01:17:59.264Z,10.10
2023-04-25T01:20:26.008Z,5.73
2023-04-25T01:22:53.520Z,8.40
2023-04-25T01:25:20.673Z,9.43
2023-04-25T01:27:47.972Z,12.27
2023-04-25T01:30:15.024Z,6.63
2023-04-25T01:32:43.171Z,10.67
2023-04-25T01:35:12.213Z,8.20
2023-04-25T01:37:43.373Z,12.67
2023-04-25T01:40:12.034Z,8.37
2023-04-25T01:42:41.863Z,8.87
2023-04-25T01:45:09.880Z,11.03
2023-04-25T01:47:36.468Z,9.43
2023-04-25T01:50:07.390Z,5.73
2023-04-25T01:52:33.953Z,6.63
2023-04-25T01:55:03.825Z,7.10
2023-04-25T01:57:30.351Z,8.20
2023-04-25T02:00:00.512Z,7.27
2023-04-25T02:02:27.389Z,7.37
2023-04-25T02:04:55.209Z,8.57
2023-04-25T02:07:21.858Z,6.00
2023-04-25T02:09:48.357Z,7.50
2023-04-25T02:12:14.835Z,12.23
2023-04-25T02:14:41.270Z,9.47
2023-04-25T02:17:08.124Z,7.30
2023-04-25T02:19:34.831Z,7.30
2023-04-25T02:22:01.719Z,7.57
2023-04-25T02:24:28.999Z,7.33
2023-04-25T02:26:56.834Z,8.37
2023-04-25T02:29:24.213Z,8.57
2023-04-25T02:31:50.865Z,4.93
2023-04-25T02:34:17.452Z,8.23
2023-04-25T02:36:43.877Z,9.47
2023-04-25T02:39:11.322Z,8.10
2023-04-25T02:41:37.943Z,4.97
2023-04-25T02:44:04.550Z,9.57
2023-04-25T02:46:38.915Z,8.87
2023-04-25T02:49:06.976Z,11.80
2023-04-25T02:51:33.659Z,6.23
2023-04-25T02:54:00.144Z,8.63
2023-04-25T02:56:27.286Z,8.17
2023-04-25T02:58:54.746Z,6.20
2023-04-25T03:01:21.466Z,9.53
2023-04-25T03:03:48.125Z,6.13
2023-04-25T03:06:15.782Z,7.50
2023-04-25T03:08:42.397Z,6.13
2023-04-25T03:11:08.972Z,6.40
2023-04-25T03:13:35.544Z,4.27
2023-04-25T03:16:02.136Z,8.27
2023-04-25T03:18:28.757Z,12.17
2023-04-25T03:20:55.646Z,9.10
2023-04-25T03:23:22.229Z,10.07
2023-04-25T03:25:48.667Z,7.03
2023-04-25T03:28:15.824Z,8.70
2023-04-25T03:30:42.264Z,7.97
2023-04-25T03:33:08.710Z,14.17
2023-04-25T03:35:35.196Z,9.70
2023-04-25T03:38:01.703Z,11.53
2023-04-25T03:40:28.224Z,6.30
2023-04-25T03:42:54.725Z,8.13
2023-04-25T03:45:21.240Z,10.30
2023-04-25T03:47:47.734Z,9.83
2023-04-25T03:50:14.275Z,6.33
2023-04-25T03:52:40.720Z,6.60
2023-04-25T03:55:07.745Z,8.60
2023-04-25T03:57:34.159Z,6.13
2023-04-25T04:00:00.704Z,13.13
2023-04-25T04:02:27.323Z,9.00
2023-04-25T04:04:54.430Z,7.67
2023-04-25T04:07:21.130Z,8.73
2023-04-25T04:09:47.559Z,11.00
2023-04-25T04:12:14.279Z,9.17
2023-04-25T04:14:41.030Z,7.23
2023-04-25T04:17:07.956Z,10.00
2023-04-25T04:19:34.438Z,6.40
2023-04-25T04:22:00.941Z,10.03
2023-04-25T04:24:27.415Z,9.33
2023-04-25T04:26:54.007Z,7.73
2023-04-25T04:29:22.176Z,11.03
2023-04-25T04:31:50.589Z,9.87
2023-04-25T04:34:20.105Z,7.73
2023-04-25T04:36:47.261Z,9.57
2023-04-25T04:39:14.684Z,12.30
2023-04-25T04:41:41.509Z,9.43
2023-04-25T04:44:09.860Z,11.03
2023-04-25T04:46:38.841Z,8.77
2023-04-25T04:49:11.553Z,8.73
2023-04-25T04:51:39.094Z,5.37
2023-04-25T04:54:05.842Z,8.90
2023-04-25T04:56:32.738Z,7.40
2023-04-25T04:58:59.550Z,6.07
2023-04-25T05:01:27.159Z,6.47
2023-04-25T05:03:54.579Z,5.13
2023-04-25T05:06:21.579Z,6.63
2023-04-25T05:08:48.093Z,6.67
2023-04-25T05:11:14.516Z,6.97
2023-04-25T05:13:41.029Z,9.37
2023-04-25T05:16:07.519Z,8.07
2023-04-25T05:18:33.944Z,4.87
2023-04-25T05:21:00.602Z,5.70
2023-04-25T05:23:28.893Z,8.70
2023-04-25T05:25:55.525Z,6.80
2023-04-25T05:28:22.304Z,6.60
2023-04-25T05:30:48.951Z,5.77
2023-04-25T05:33:15.671Z,3.93
2023-04-25T05:35:42.274Z,4.90
2023-04-25T05:38:08.824Z,6.90
2023-04-25T05:40:35.692Z,6.33
2023-04-25T05:43:02.578Z,4.07
2023-04-25T05:45:29.158Z,3.87
2023-04-25T05:47:55.774Z,5.70
2023-04-25T05:50:22.600Z,5.47
2023-04-25T05:52:49.182Z,10.83
2023-04-25T05:55:15.903Z,5.67
2023-04-25T05:57:43.431Z,4.33
2023-04-25T06:00:10.850Z,4.00
2023-04-25T06:02:37.399Z,5.30
2023-04-25T06:05:04.746Z,4.53
2023-04-25T06:07:31.834Z,5.03
2023-04-25T06:09:58.767Z,5.50
2023-04-25T06:12:25.468Z,5.10
2023-04-25T06:14:51.841Z,4.30
2023-04-25T06:17:18.438Z,4.47
2023-04-25T06:19:44.912Z,5.40
2023-04-25T06:22:11.533Z,4.53
2023-04-25T06:24:37.960Z,4.83
2023-04-25T06:27:04.400Z,7.33
2023-04-25T06:29:30.873Z,5.73
2023-04-25T06:31:58.209Z,6.40
2023-04-25T06:34:25.065Z,6.40
2023-04-25T06:36:51.570Z,4.53
2023-04-25T06:39:18.112Z,4.97
2023-04-25T06:41:44.554Z,6.67
2023-04-25T06:44:10.996Z,5.47
2023-04-25T06:46:38.677Z,5.63
2023-04-25T06:49:05.161Z,3.60
2023-04-25T06:51:31.849Z,7.83
2023-04-25T06:53:58.768Z,4.80
2023-04-25T06:56:25.358Z,9.03
2023-04-25T06:58:52.032Z,8.50
2023-04-25T07:01:19.662Z,7.10
2023-04-25T07:03:46.319Z,2.70
2023-04-25T07:06:13.014Z,4.43
2023-04-25T07:08:39.516Z,5.60
2023-04-25T07:11:06.034Z,3.03
2023-04-25T07:13:32.506Z,4.50
2023-04-25T07:15:58.984Z,6.50
2023-04-25T07:18:25.500Z,5.17
2023-04-25T07:20:51.954Z,5.77
2023-04-25T07:23:18.594Z,3.50
2023-04-25T07:25:45.165Z,6.67
2023-04-25T07:28:11.646Z,5.97
2023-04-25T07:30:38.298Z,6.03
2023-04-25T07:33:05.418Z,6.23
2023-04-25T07:35:31.836Z,4.63
2023-04-25T07:37:58.273Z,7.87
2023-04-25T07:40:24.751Z,5.10
2023-04-25T07:42:51.259Z,4.23
2023-04-25T07:45:17.904Z,5.53
2023-04-25T07:47:44.467Z,3.70
2023-04-25T07:50:11.989Z,5.70
2023-04-25T07:52:38.545Z,3.37
2023-04-25T07:55:05.537Z,3.63
2023-04-25T07:57:32.143Z,3.03
2023-04-25T07:59:58.895Z,5.30
2023-04-25T08:02:27.124Z,1.87
2023-04-25T08:04:53.673Z,5.33
2023-04-25T08:07:20.735Z,4.23
2023-04-25T08:09:47.356Z,3.50
2023-04-25T08:12:13.919Z,2.87
2023-04-25T08:14:40.809Z,2.60
2023-04-25T08:17:07.231Z,2.57
2023-04-25T08:19:33.793Z,2.50
2023-04-25T08:22:00.466Z,3.57
2023-04-25T08:24:26.936Z,3.07
2023-04-25T08:26:53.623Z,3.57
2023-04-25T08:29:20.343Z,7.03
2023-04-25T08:31:47.060Z,4.83
2023-04-25T08:34:13.618Z,3.80
2023-04-25T08:36:40.562Z,3.83
2023-04-25T08:39:07.949Z,4.40
2023-04-25T08:41:34.576Z,2.53
2023-04-25T08:44:03.916Z,3.67
2023-04-25T08:46:32.344Z,5.53
2023-04-25T08:49:02.688Z,2.57
2023-04-25T08:51:35.131Z,3.67
2023-04-25T08:54:30.961Z,3.93
2023-04-25T08:57:02.839Z,2.80
2023-04-25T08:59:29.567Z,2.03
2023-04-25T09:01:56.211Z,1.73
2023-04-25T09:04:22.759Z,5.33
2023-04-25T09:06:49.218Z,1.90
2023-04-25T09:09:15.937Z,3.37
2023-04-25T09:11:42.517Z,2.63
2023-04-25T09:14:16.704Z,3.73
2023-04-25T09:16:58.480Z,3.00
2023-04-25T09:19:40.144Z,4.03
2023-04-25T09:22:08.766Z,4.47
2023-04-25T09:24:52.021Z,3.40
2023-04-25T09:27:26.150Z,3.83
2023-04-25T09:29:59.815Z,2.70
2023-04-25T09:32:26.666Z,1.50
2023-04-25T09:34:55.157Z,3.47
2023-04-25T09:37:23.754Z,2.50
2023-04-25T09:39:55.427Z,2.37
2023-04-25T09:42:29.866Z,3.27
2023-04-25T09:44:57.535Z,2.53
2023-04-25T09:47:26.042Z,1.00
2023-04-25T09:49:54.027Z,2.57
2023-04-25T09:52:25.294Z,1.80
2023-04-25T09:54:53.108Z,3.20
2023-04-25T09:57:21.686Z,3.67
2023-04-25T09:59:48.959Z,2.70
2023-04-25T10:02:21.403Z,2.10
2023-04-25T10:04:56.405Z,2.67
2023-04-25T10:07:27.229Z,1.80
2023-04-25T10:10:04.132Z,3.13
2023-04-25T10:12:34.919Z,2.60
2023-04-25T10:15:02.367Z,4.03
2023-04-25T10:17:29.268Z,5.23
2023-04-25T10:19:56.235Z,3.27
2023-04-25T10:22:38.229Z,4.83
2023-04-25T10:25:05.983Z,3.20
2023-04-25T10:27:32.700Z,4.63
2023-04-25T10:30:16.267Z,6.53
2023-04-25T10:32:44.700Z,2.83
2023-04-25T10:35:12.369Z,4.23
2023-04-25T10:37:40.588Z,3.40
2023-04-25T10:40:11.109Z,3.80
2023-04-25T10:42:37.568Z,4.90
2023-04-25T10:45:07.497Z,3.40
2023-04-25T10:47:38.143Z,3.53
2023-04-25T10:50:09.320Z,3.80
2023-04-25T10:52:35.865Z,2.93
2023-04-25T10:55:05.120Z,1.80
2023-04-25T10:57:34.339Z,2.20
2023-04-25T11:00:13.224Z,3.57
2023-04-25T11:02:53.564Z,4.17
2023-04-25T11:05:30.623Z,4.73
2023-04-25T11:10:32.759Z,3.23
2023-04-25T11:12:59.825Z,1.80
2023-04-25T11:15:26.856Z,3.00
2023-04-25T11:17:54.329Z,3.93
2023-04-25T11:20:21.767Z,3.07
2023-04-25T11:22:50.374Z,2.43
2023-04-25T11:25:18.151Z,2.87
2023-04-25T11:27:55.779Z,4.63
2023-04-25T11:30:23.413Z,2.97
2023-04-25T11:32:49.915Z,5.37
2023-04-25T11:35:16.691Z,3.60
2023-04-25T11:37:44.722Z,3.20
2023-04-25T11:40:12.619Z,3.80
2023-04-25T11:42:40.652Z,3.37
2023-04-25T11:45:07.797Z,4.27
2023-04-25T11:47:34.964Z,2.37
2023-04-25T11:50:02.790Z,2.73
2023-04-25T11:52:45.950Z,2.93
2023-04-25T11:55:20.312Z,5.57
2023-04-25T11:57:51.071Z,2.70
2023-04-25T12:00:21.286Z,3.53
2023-04-25T12:02:52.405Z,2.57
2023-04-25T12:07:48.414Z,1.40
2023-04-25T12:10:17.519Z,1.90
2023-04-25T12:12:46.982Z,3.00
2023-04-25T12:15:16.616Z,1.27
2023-04-25T12:17:45.749Z,2.70
2023-04-25T12:20:15.725Z,4.30
2023-04-25T12:22:45.666Z,2.67
2023-04-25T12:25:13.973Z,2.00
2023-04-25T12:27:43.041Z,2.37
2023-04-25T12:30:09.959Z,4.10
2023-04-25T12:32:36.978Z,3.67
2023-04-25T12:35:03.578Z,3.17
2023-04-25T12:37:30.092Z,3.40
2023-04-25T12:39:56.487Z,2.30
2023-04-25T12:42:22.896Z,1.70
2023-04-25T12:44:49.449Z,3.40
2023-04-25T12:47:15.953Z,3.97
2023-04-25T12:49:42.433Z,3.00
2023-04-25T12:52:08.880Z,2.07
2023-04-25T12:54:35.349Z,4.10
2023-04-25T12:57:03.805Z,5.57
2023-04-25T12:59:30.367Z,3.27
2023-04-25T13:01:56.857Z,2.07
2023-04-25T13:04:23.412Z,2.97
2023-04-25T13:06:50.048Z,2.27
2023-04-25T13:09:16.598Z,2.93
2023-04-25T13:11:43.310Z,3.43
2023-04-25T13:14:09.814Z,3.07
2023-04-25T13:16:36.592Z,2.57
2023-04-25T13:19:03.087Z,2.97
2023-04-25T13:21:32.030Z,1.17
2023-04-25T13:23:58.700Z,2.47
2023-04-25T13:26:25.109Z,1.57
2023-04-25T13:28:51.550Z,2.00
2023-04-25T13:31:17.984Z,0.97
2023-04-25T13:33:44.766Z,2.20
2023-04-25T13:36:12.037Z,3.27
2023-04-25T13:38:39.766Z,3.57
2023-04-25T13:41:07.864Z,1.43
2023-04-25T13:43:35.016Z,2.30
2023-04-25T13:46:01.649Z,3.93
2023-04-25T13:48:28.291Z,1.67
2023-04-25T13:50:54.755Z,2.77
2023-04-25T13:53:22.076Z,2.73
2023-04-25T13:55:48.571Z,2.53
2023-04-25T13:58:15.030Z,3.50
2023-04-25T14:00:44.326Z,2.13
2023-04-25T14:03:11.052Z,2.70
2023-04-25T14:05:41.109Z,1.97
2023-04-25T14:08:09.458Z,3.70
2023-04-25T14:10:36.639Z,1.40
2023-04-25T14:13:04.271Z,3.97
2023-04-25T14:15:34.778Z,2.70
2023-04-25T14:18:02.144Z,2.90
2023-04-25T14:20:29.766Z,2.10
2023-04-25T14:22:58.033Z,2.63
2023-04-25T14:25:25.118Z,2.03
2023-04-25T14:27:51.815Z,1.80
2023-04-25T14:30:22.635Z,4.00
2023-04-25T14:32:52.331Z,3.03
2023-04-25T14:35:19.522Z,3.20
2023-04-25T14:37:46.121Z,1.83
2023-04-25T14:40:14.309Z,4.03
2023-04-25T14:42:41.256Z,3.63
2023-04-25T14:45:09.499Z,6.23
2023-04-25T14:47:37.434Z,4.40
2023-04-25T14:50:05.552Z,2.83
2023-04-25T14:52:32.231Z,4.13
2023-04-25T14:55:00.996Z,4.03
2023-04-25T14:57:27.569Z,4.10
2023-04-25T14:59:53.992Z,2.93
2023-04-25T15:02:20.491Z,2.97
2023-04-25T15:04:47.408Z,2.60
2023-04-25T15:07:14.727Z,1.50
2023-04-25T15:09:42.240Z,4.33
2023-04-25T15:12:10.257Z,3.40
2023-04-25T15:14:37.107Z,2.73
2023-04-25T15:17:03.605Z,3.27
2023-04-25T15:19:30.165Z,2.77
2023-04-25T15:21:56.861Z,3.33
2023-04-25T15:24:23.431Z,2.17
2023-04-25T15:26:49.956Z,2.70
2023-04-25T15:29:16.467Z,3.20
2023-04-25T15:31:43.003Z,4.10
2023-04-25T15:34:09.544Z,3.17
2023-04-25T15:36:35.997Z,5.77
2023-04-25T15:39:02.620Z,5.23
2023-04-25T15:41:29.626Z,3.33
2023-04-25T15:43:56.114Z,2.60
2023-04-25T15:46:23.715Z,3.17
2023-04-25T15:48:50.294Z,3.40
2023-04-25T15:51:17.353Z,4.50
2023-04-25T15:53:43.905Z,3.03
2023-04-25T15:56:10.372Z,3.57
2023-04-25T15:58:36.914Z,4.27
2023-04-25T16:01:04.906Z,1.73
2023-04-25T16:03:33.705Z,2.80
2023-04-25T16:06:03.081Z,3.43
2023-04-25T16:08:29.873Z,2.67
2023-04-25T16:10:57.403Z,2.50
2023-04-25T16:13:24.069Z,3.93
2023-04-25T16:15:50.614Z,3.87
2023-04-25T16:18:17.305Z,3.53
2023-04-25T16:20:44.182Z,6.10
2023-04-25T16:23:10.622Z,4.03
2023-04-25T16:25:37.066Z,3.77
2023-04-25T16:28:03.504Z,5.10
2023-04-25T16:30:29.953Z,3.37
2023-04-25T16:32:57.477Z,2.33
2023-04-25T16:35:24.768Z,2.47
2023-04-25T16:37:51.237Z,5.40
2023-04-25T16:40:17.829Z,2.97
2023-04-25T16:42:44.283Z,4.53
2023-04-25T16:45:11.093Z,3.47
2023-04-25T16:47:37.695Z,2.47
2023-04-25T16:50:04.592Z,3.77
2023-04-25T16:52:31.565Z,4.20
2023-04-25T16:54:58.021Z,2.70
2023-04-25T16:57:24.517Z,2.93
2023-04-25T16:59:51.025Z,1.93
2023-04-25T17:02:17.622Z,2.33
2023-04-25T17:04:44.236Z,3.10
2023-04-25T17:07:10.934Z,2.77
2023-04-25T17:09:37.397Z,3.57
2023-04-25T17:12:04.830Z,4.23
2023-04-25T17:14:33.127Z,2.57
2023-04-25T17:16:59.622Z,4.00
2023-04-25T17:19:26.303Z,2.20
2023-04-25T17:21:52.884Z,2.47
2023-04-25T17:24:21.901Z,3.57
2023-04-25T17:26:48.980Z,2.93
2023-04-25T17:29:15.673Z,4.23
2023-04-25T17:31:42.657Z,3.87
2023-04-25T17:34:09.797Z,4.70
2023-04-25T17:36:36.405Z,5.40
2023-04-25T17:39:06.138Z,2.40
2023-04-25T17:41:32.593Z,4.57
2023-04-25T17:43:59.067Z,3.03
2023-04-25T17:46:26.818Z,4.50
2023-04-25T17:48:53.656Z,3.77
2023-04-25T17:51:20.429Z,3.93
2023-04-25T17:53:47.083Z,3.43
2023-04-25T17:56:25.910Z,1.80
2023-04-25T17:58:54.167Z,3.93
2023-04-25T18:01:21.354Z,3.17
2023-04-25T18:03:50.044Z,4.73
2023-04-25T18:06:18.115Z,2.70
2023-04-25T18:08:44.891Z,2.30
2023-04-25T18:11:12.200Z,6.00
2023-04-25T18:13:39.326Z,4.60
2023-04-25T18:16:06.448Z,3.27
2023-04-25T18:18:34.571Z,2.77
2023-04-25T18:21:03.916Z,4.57
2023-04-25T18:23:32.452Z,4.03
2023-04-25T18:25:58.888Z,4.27
2023-04-25T18:28:25.385Z,2.50
2023-04-25T18:30:51.830Z,4.00
2023-04-25T18:33:18.352Z,6.30
2023-04-25T18:35:55.312Z,7.40
2023-04-25T18:38:35.577Z,6.07
2023-04-25T18:41:18.175Z,6.30
2023-04-25T18:43:47.568Z,4.97
2023-04-25T18:46:13.995Z,2.83
2023-04-25T18:48:40.775Z,6.00
2023-04-25T18:51:07.310Z,2.93
2023-04-25T18:53:33.831Z,5.13
2023-04-25T18:56:01.060Z,3.70
2023-04-25T18:58:28.206Z,6.00
2023-04-25T19:00:54.710Z,4.87
2023-04-25T19:03:22.287Z,5.37
2023-04-25T19:05:48.906Z,4.23
2023-04-25T19:08:15.504Z,4.63
2023-04-25T19:10:42.067Z,6.77
2023-04-25T19:13:08.619Z,3.43
2023-04-25T19:15:35.235Z,6.03
2023-04-25T19:18:01.721Z,4.93
2023-04-25T19:20:28.482Z,4.73
2023-04-25T19:22:54.995Z,2.80
2023-04-25T19:25:22.398Z,2.80
2023-04-25T19:27:48.889Z,8.07
2023-04-25T19:30:15.379Z,5.13
2023-04-25T19:32:41.870Z,6.23
2023-04-25T19:35:11.433Z,5.50
2023-04-25T19:37:39.071Z,2.63
2023-04-25T19:40:07.423Z,4.53
2023-04-25T19:42:33.942Z,5.30
2023-04-25T19:45:00.374Z,2.97
2023-04-25T19:47:28.241Z,6.30
2023-04-25T19:49:55.123Z,5.47
2023-04-25T19:52:21.780Z,4.47
2023-04-25T19:54:48.309Z,4.03
2023-04-25T19:57:15.116Z,6.03
2023-04-25T19:59:41.695Z,5.63
2023-04-25T20:02:10.777Z,4.00
2023-04-25T20:04:38.656Z,4.83
2023-04-25T20:07:05.327Z,4.10
2023-04-25T20:09:31.948Z,4.13
2023-04-25T20:11:58.421Z,4.77
2023-04-25T20:14:24.811Z,4.67
2023-04-25T20:16:51.369Z,4.67
2023-04-25T20:19:18.129Z,4.00
2023-04-25T20:21:44.557Z,6.87
2023-04-25T20:24:12.005Z,4.27
2023-04-25T20:26:38.616Z,4.90
2023-04-25T20:29:06.027Z,7.10
2023-04-25T20:31:34.402Z,3.87
2023-04-25T20:34:01.006Z,4.73
2023-04-25T20:36:27.569Z,2.87
2023-04-25T20:38:54.700Z,8.20
2023-04-25T20:41:21.467Z,9.33
2023-04-25T20:43:48.224Z,5.67
2023-04-25T20:46:16.037Z,7.73
2023-04-25T20:48:42.680Z,2.97
2023-04-25T20:51:09.200Z,5.87
2023-04-25T20:53:35.601Z,5.73
2023-04-25T20:56:02.684Z,5.43
2023-04-25T20:58:29.143Z,3.17
2023-04-25T21:00:56.612Z,5.70
2023-04-25T21:03:23.383Z,5.80
2023-04-25T21:05:50.027Z,4.30
2023-04-25T21:08:16.756Z,3.37
2023-04-25T21:10:43.201Z,3.33
2023-04-25T21:13:09.762Z,6.60
2023-04-25T21:15:36.260Z,7.17
2023-04-25T21:18:02.901Z,6.37
2023-04-25T21:20:29.447Z,7.30
2023-04-25T21:22:55.890Z,4.60
2023-04-25T21:25:29.065Z,5.80
2023-04-25T21:27:55.691Z,3.80
2023-04-25T21:30:24.204Z,3.73
2023-04-25T21:32:51.976Z,4.40
2023-04-25T21:35:20.149Z,6.83
2023-04-25T21:37:46.823Z,2.80
2023-04-25T21:40:14.760Z,7.03
2023-04-25T21:42:42.344Z,4.13
2023-04-25T21:45:10.191Z,7.47
2023-04-25T21:47:36.900Z,4.23
2023-04-25T21:50:04.052Z,6.50
2023-04-25T21:52:30.921Z,6.53
2023-04-25T21:54:57.321Z,5.73
2023-04-25T21:57:23.788Z,7.67
2023-04-25T21:59:50.307Z,5.77
2023-04-25T22:02:17.119Z,4.40
2023-04-25T22:04:45.335Z,6.23
2023-04-25T22:07:12.324Z,4.03
2023-04-25T22:09:51.208Z,9.20
2023-04-25T22:12:20.562Z,6.30
2023-04-25T22:14:47.490Z,6.90
2023-04-25T22:17:13.977Z,11.67
2023-04-25T22:19:40.460Z,5.60
2023-04-25T22:22:07.538Z,7.13
2023-04-25T22:24:34.010Z,3.67
2023-04-25T22:27:00.523Z,5.80
2023-04-25T22:29:27.435Z,7.40
2023-04-25T22:31:54.014Z,6.30
2023-04-25T22:34:21.012Z,7.73
2023-04-25T22:36:47.541Z,10.20
2023-04-25T22:39:16.100Z,6.27
2023-04-25T22:41:42.699Z,6.30
2023-04-25T22:44:09.397Z,7.30
2023-04-25T22:46:35.830Z,7.80
2023-04-25T22:49:02.681Z,6.80
2023-04-25T22:51:29.502Z,7.17
2023-04-25T22:53:56.195Z,6.67
2023-04-25T22:56:24.687Z,7.23
2023-04-25T22:58:51.773Z,5.00
2023-04-25T23:01:19.420Z,4.07
2023-04-25T23:03:46.319Z,7.40
2023-04-25T23:06:13.667Z,7.50
2023-04-25T23:08:41.741Z,4.97
2023-04-25T23:11:08.755Z,8.10
2023-04-25T23:13:37.037Z,6.33
2023-04-25T23:16:10.738Z,8.77
2023-04-25T23:18:39.138Z,6.23
2023-04-25T23:21:11.307Z,7.20
2023-04-25T23:23:38.153Z,6.50
2023-04-25T23:26:09.866Z,4.27
2023-04-25T23:28:39.295Z,7.30
2023-04-25T23:31:07.470Z,5.73
2023-04-25T23:33:34.269Z,6.10
2023-04-25T23:36:00.940Z,7.23
2023-04-25T23:38:27.906Z,9.00
2023-04-25T23:40:54.352Z,7.07
2023-04-25T23:43:20.854Z,8.80
2023-04-25T23:45:47.314Z,9.73
2023-04-25T23:48:14.819Z,7.80
2023-04-25T23:50:41.944Z,8.67
2023-04-25T23:53:11.483Z,6.93
2023-04-25T23:55:37.928Z,8.70
2023-04-25T23:58:04.378Z,10.33
